createdAt,value
2023-05-04T00:00:07.470Z,66.0067
2023-05-04T00:01:08.348Z,53.6433
2023-05-04T00:02:09.436Z,49.4972
2023-05-04T00:03:10.606Z,55.0068
2023-05-04T10:07:33.101Z,47.5214
2023-05-04T10:08:26.571Z,46.0257
2023-05-04T10:09:27.660Z,45.2141
2023-05-04T10:10:28.757Z,44.8426
2023-05-04T10:11:29.861Z,44.3369
2023-05-04T10:12:31.040Z,43.8734
2023-05-04T10:13:32.093Z,43.5259
2023-05-04T10:14:33.218Z,43.2404
2023-05-04T10:15:34.327Z,42.9645
2023-05-04T10:16:35.468Z,42.8183
2023-05-04T10:17:36.573Z,42.7604
2023-05-04T10:18:37.663Z,42.5811
2023-05-04T10:19:38.766Z,42.5206
2023-05-04T10:20:39.894Z,42.3052
2023-05-04T10:21:40.988Z,42.1876
2023-05-04T10:22:42.132Z,42.1383
2023-05-04T10:23:43.232Z,42.1069
2023-05-04T10:24:44.374Z,42.0869
2023-05-04T10:25:45.468Z,42.1049
2023-05-04T10:26:46.568Z,42.0044
2023-05-04T10:27:47.734Z,41.8480
2023-05-04T10:28:48.781Z,41.7806
2023-05-04T10:29:49.907Z,41.7333
2023-05-04T10:30:51.017Z,41.6532
2023-05-04T10:31:52.149Z,41.5486
2023-05-04T10:32:53.289Z,41.4629
2023-05-04T10:33:54.326Z,41.3463
2023-05-04T10:34:57.332Z,41.3202
2023-05-04T10:35:56.531Z,41.2953
2023-05-04T10:36:57.641Z,41.1915
2023-05-04T10:37:58.761Z,41.1365
2023-05-04T10:38:59.874Z,41.2136
2023-05-04T10:40:01.009Z,41.2816
2023-05-04T10:41:02.092Z,41.2990
2023-05-04T10:42:03.210Z,41.3166
2023-05-04T10:43:04.317Z,41.2908
2023-05-04T10:44:05.420Z,41.3972
2023-05-04T10:45:06.732Z,41.4791
2023-05-04T10:46:07.662Z,41.4909
2023-05-04T10:47:08.756Z,41.4717
2023-05-04T10:48:09.945Z,41.4913
2023-05-04T10:49:10.966Z,41.7090
2023-05-04T10:50:12.090Z,41.8597
2023-05-04T10:51:13.196Z,41.9180
2023-05-04T10:52:14.296Z,41.9951
2023-05-04T10:53:15.427Z,42.1660
2023-05-04T10:54:16.536Z,41.9749
2023-05-04T10:55:17.628Z,41.8202
2023-05-04T10:56:18.732Z,41.9736
2023-05-04T10:57:19.867Z,42.2070
2023-05-04T10:58:20.979Z,42.3359
2023-05-04T10:59:22.071Z,42.5225
2023-05-04T11:00:23.205Z,42.7183
2023-05-04T11:01:24.379Z,42.7123
2023-05-04T11:02:25.449Z,42.7738
2023-05-04T11:03:26.653Z,42.6517
2023-05-04T11:04:27.650Z,42.8087
2023-05-04T11:05:28.750Z,42.9865
2023-05-04T11:06:29.858Z,43.1514
2023-05-04T11:07:30.970Z,43.6290
2023-05-04T11:08:32.083Z,43.3728
2023-05-04T11:09:33.181Z,43.0394
2023-05-04T11:10:34.276Z,42.6240
2023-05-04T11:11:35.397Z,42.1377
2023-05-04T11:12:36.542Z,41.8241
2023-05-04T11:13:37.638Z,41.5756
2023-05-04T11:14:38.739Z,41.3017
2023-05-04T11:15:39.837Z,41.0240
2023-05-04T11:16:40.992Z,40.7255
2023-05-04T11:17:42.079Z,40.4468
2023-05-04T11:18:43.163Z,40.1990
2023-05-04T11:19:44.260Z,39.9938
2023-05-04T11:20:45.357Z,39.6806
2023-05-04T11:21:46.471Z,39.4176
2023-05-04T11:22:47.591Z,39.1864
2023-05-04T11:23:48.703Z,38.9613
2023-05-04T11:24:49.816Z,39.0325
2023-05-04T11:25:50.917Z,38.6282
2023-05-04T11:26:52.041Z,38.4118
2023-05-04T11:27:53.137Z,38.3482
2023-05-04T11:28:54.258Z,38.2479
2023-05-04T11:29:55.378Z,38.0062
2023-05-04T11:30:56.478Z,37.8994
2023-05-04T11:31:57.686Z,38.0175
2023-05-04T11:32:58.696Z,38.0804
2023-05-04T11:33:59.831Z,38.1352
2023-05-04T11:35:00.912Z,37.7967
2023-05-04T11:36:02.010Z,37.4663
2023-05-04T11:37:03.162Z,37.2629
2023-05-04T11:38:04.247Z,37.2819
2023-05-04T11:39:05.357Z,36.9432
2023-05-04T11:40:06.474Z,36.8524
2023-05-04T11:41:07.579Z,36.9578
2023-05-04T11:42:08.698Z,36.9105
2023-05-04T11:43:09.800Z,36.7959
2023-05-04T11:44:10.909Z,36.7996
2023-05-04T11:45:12.021Z,36.7544
2023-05-04T11:46:13.218Z,36.6975
2023-05-04T11:47:14.244Z,36.5367
2023-05-04T11:48:16.649Z,36.6000
2023-05-04T11:49:16.514Z,36.6435
2023-05-04T11:50:17.575Z,36.7935
2023-05-04T11:51:18.693Z,36.8022
2023-05-04T11:52:19.805Z,36.8980
2023-05-04T11:53:20.905Z,36.7751
2023-05-04T11:54:22.154Z,36.8689
2023-05-04T11:55:23.130Z,36.8975
2023-05-04T11:56:24.242Z,36.8812
2023-05-04T11:57:25.345Z,36.9718
2023-05-04T11:58:26.455Z,37.0103
2023-05-04T11:59:27.601Z,37.0823
2023-05-04T12:00:28.677Z,37.1829
2023-05-04T12:01:29.787Z,37.2179
2023-05-04T12:02:30.939Z,37.1344
2023-05-04T12:03:48.073Z,37.1560
2023-05-04T12:04:34.172Z,37.3097
2023-05-04T12:05:34.259Z,37.3776
2023-05-04T12:06:35.380Z,37.1206
2023-05-04T12:07:36.503Z,36.9546
2023-05-04T12:08:37.566Z,36.9742
2023-05-04T12:09:38.840Z,37.1520
2023-05-04T12:10:39.801Z,37.3807
2023-05-04T12:11:40.910Z,37.3439
2023-05-04T12:12:42.069Z,37.3349
2023-05-04T12:13:43.134Z,37.1630
2023-05-04T12:14:44.287Z,37.2478
2023-05-04T12:15:45.364Z,37.5204
2023-05-04T12:16:46.532Z,37.6306
2023-05-04T12:17:47.637Z,37.6939
2023-05-04T12:18:48.665Z,37.5060
2023-05-04T12:19:49.799Z,37.4857
2023-05-04T12:20:50.885Z,37.6066
2023-05-04T12:21:52.269Z,37.5688
2023-05-04T12:22:53.087Z,37.5055
2023-05-04T12:23:54.224Z,37.4275
2023-05-04T12:24:55.501Z,37.5538
2023-05-04T12:25:58.440Z,37.9742
2023-05-04T12:26:57.536Z,38.0892
2023-05-04T12:27:58.619Z,38.2618
2023-05-04T12:28:59.755Z,38.6250
2023-05-04T12:30:00.836Z,38.7735
2023-05-04T12:31:01.939Z,38.8644
2023-05-04T12:32:03.111Z,38.7178
2023-05-04T12:33:04.200Z,38.5065
2023-05-04T12:34:05.269Z,38.5743
2023-05-04T12:35:06.572Z,38.5468
2023-05-04T12:36:07.497Z,38.4163
2023-05-04T12:37:08.596Z,38.2888
2023-05-04T12:38:09.722Z,38.4158
2023-05-04T12:39:10.809Z,38.3820
2023-05-04T12:40:25.087Z,38.2987
2023-05-04T12:41:14.059Z,38.3384
2023-05-04T12:42:14.133Z,38.5781
2023-05-04T12:43:15.264Z,38.5208
2023-05-04T12:44:16.358Z,38.4183
2023-05-04T12:45:17.465Z,38.3295
2023-05-04T12:46:18.576Z,38.2221
2023-05-04T12:47:19.726Z,38.1462
2023-05-04T12:48:20.794Z,38.0626
2023-05-04T12:49:24.574Z,37.9693
2023-05-04T12:50:23.001Z,37.8473
2023-05-04T12:51:24.094Z,37.8073
2023-05-04T12:52:25.211Z,37.8521
2023-05-04T12:53:26.313Z,37.8524
2023-05-04T12:54:27.421Z,37.9290
2023-05-04T12:55:28.647Z,38.1073
2023-05-04T12:56:29.632Z,38.0430
2023-05-04T12:57:30.740Z,38.1126
2023-05-04T12:58:31.896Z,38.1157
2023-05-04T12:59:32.983Z,38.5453
2023-05-04T13:00:34.097Z,38.7240
2023-05-04T13:01:35.222Z,38.4099
2023-05-04T13:02:36.316Z,38.2423
2023-05-04T13:03:37.515Z,38.1628
2023-05-04T13:04:38.529Z,38.0746
2023-05-04T13:05:39.659Z,38.1743
2023-05-04T13:06:40.759Z,38.1686
2023-05-04T13:07:41.850Z,37.9944
2023-05-04T13:08:42.989Z,38.1370
2023-05-04T13:09:44.050Z,37.9164
2023-05-04T13:10:45.240Z,37.8561
2023-05-04T13:11:46.254Z,38.5402
2023-05-04T13:12:47.407Z,38.5887
2023-05-04T13:13:48.462Z,38.4452
2023-05-04T13:14:49.597Z,38.4120
2023-05-04T13:15:50.725Z,38.0736
2023-05-04T13:16:51.832Z,38.1426
2023-05-04T13:17:52.905Z,38.2649
2023-05-04T13:18:54.014Z,38.0278
2023-05-04T13:19:55.120Z,38.1633
2023-05-04T13:20:56.271Z,38.4801
2023-05-04T13:21:57.332Z,38.8371
2023-05-04T13:22:58.660Z,39.1791
2023-05-04T13:23:59.544Z,38.4472
2023-05-04T13:25:00.669Z,38.0798
2023-05-04T13:26:01.809Z,37.6491
2023-05-04T13:27:02.930Z,37.4481
2023-05-04T13:28:03.973Z,37.5467
2023-05-04T13:29:05.091Z,37.0475
2023-05-04T13:30:06.193Z,36.9181
2023-05-04T13:31:07.418Z,37.0209
2023-05-04T13:32:08.415Z,36.8685
2023-05-04T13:33:20.603Z,36.9198
2023-05-04T13:34:11.700Z,36.8949
2023-05-04T13:35:11.747Z,36.7450
2023-05-04T13:36:12.861Z,36.7531
2023-05-04T13:37:13.958Z,37.0658
2023-05-04T13:38:15.064Z,36.8081
2023-05-04T13:39:16.166Z,36.5187
2023-05-04T13:40:17.285Z,36.5415
2023-05-04T13:41:18.458Z,36.6381
2023-05-04T13:42:19.488Z,36.6706
2023-05-04T13:43:20.583Z,36.7487
2023-05-04T13:44:21.691Z,36.7758
2023-05-04T13:45:22.815Z,36.9385
2023-05-04T13:46:23.936Z,36.6943
2023-05-04T13:47:25.012Z,36.5057
2023-05-04T13:48:26.287Z,36.6049
2023-05-04T13:49:27.220Z,36.5318
2023-05-04T13:50:28.296Z,36.5132
2023-05-04T13:51:29.442Z,36.5503
2023-05-04T13:52:30.526Z,36.4362
2023-05-04T13:53:31.676Z,36.3953
2023-05-04T13:54:32.716Z,36.4225
2023-05-04T13:55:33.822Z,36.3707
2023-05-04T13:56:34.970Z,36.3414
2023-05-04T13:57:36.045Z,36.4420
2023-05-04T13:58:37.144Z,36.5294
2023-05-04T13:59:38.250Z,36.5826
2023-05-04T14:00:39.398Z,36.4255
2023-05-04T14:01:40.451Z,36.2477
2023-05-04T14:02:41.646Z,36.2092
2023-05-04T14:03:42.664Z,36.1900
2023-05-04T14:04:44.498Z,35.9504
2023-05-04T14:05:44.854Z,35.7902
2023-05-04T14:06:45.969Z,35.7536
2023-05-04T14:07:47.145Z,35.8138
2023-05-04T14:08:48.245Z,35.7905
2023-05-04T14:09:49.357Z,35.8157
2023-05-04T14:10:50.472Z,35.8335
2023-05-04T14:11:51.659Z,35.7158
2023-05-04T14:12:52.695Z,35.6782
2023-05-04T14:13:53.782Z,35.6179
2023-05-04T14:14:54.892Z,35.5239
2023-05-04T14:15:55.982Z,35.4878
2023-05-04T14:16:57.154Z,35.3666
2023-05-04T14:17:58.247Z,35.1787
2023-05-04T14:18:59.318Z,35.1352
2023-05-04T14:20:00.421Z,35.1728
2023-05-04T14:21:01.526Z,35.2025
2023-05-04T14:22:02.654Z,35.1990
2023-05-04T14:23:03.739Z,35.1030
2023-05-04T14:24:04.868Z,35.0324
2023-05-04T14:25:06.247Z,34.8724
2023-05-04T14:26:07.100Z,34.8125
2023-05-04T14:27:08.198Z,34.8761
2023-05-04T14:28:09.281Z,34.8520
2023-05-04T14:29:10.396Z,34.9648
2023-05-04T14:30:11.525Z,35.1361
2023-05-04T14:31:12.611Z,35.3195
2023-05-04T14:32:13.767Z,35.4430
2023-05-04T14:33:14.872Z,35.5263
2023-05-04T14:34:15.946Z,35.6196
2023-05-04T14:35:17.054Z,35.4483
2023-05-04T14:36:18.163Z,35.4445
2023-05-04T14:37:19.289Z,35.4117
2023-05-04T14:38:20.376Z,35.4145
2023-05-04T14:39:21.495Z,35.3990
2023-05-04T14:40:22.625Z,35.3509
2023-05-04T14:41:23.737Z,35.3315
2023-05-04T14:42:24.863Z,35.3968
2023-05-04T14:43:26.141Z,35.4120
2023-05-04T14:44:27.266Z,35.6295
2023-05-04T14:45:28.426Z,35.7003
2023-05-04T14:46:29.400Z,35.6732
2023-05-04T14:47:30.673Z,35.6599
2023-05-04T14:48:31.584Z,35.5985
2023-05-04T14:49:37.282Z,35.6842
2023-05-04T14:50:34.677Z,35.6321
2023-05-04T14:51:34.782Z,35.7477
2023-05-04T14:52:35.899Z,35.8274
2023-05-04T14:53:37.940Z,35.7132
2023-05-04T14:54:38.100Z,35.6441
2023-05-04T14:55:39.185Z,35.4056
2023-05-04T14:56:40.309Z,35.2548
2023-05-04T14:57:41.422Z,35.2291
2023-05-04T14:58:42.517Z,35.2126
2023-05-04T14:59:43.625Z,35.2614
2023-05-04T15:00:44.752Z,35.6983
2023-05-04T15:01:45.907Z,35.5056
2023-05-04T15:02:47.007Z,35.5122
2023-05-04T15:03:48.134Z,35.4903
2023-05-04T15:04:49.168Z,35.5274
2023-05-04T15:05:50.274Z,35.6010
2023-05-04T15:06:51.391Z,35.3754
2023-05-04T15:07:52.492Z,35.2499
2023-05-04T15:08:53.596Z,35.1546
2023-05-04T15:09:54.692Z,35.2513
2023-05-04T15:10:55.801Z,35.3768
2023-05-04T15:11:56.899Z,35.5229
2023-05-04T15:12:58.004Z,35.4655
2023-05-04T15:13:59.140Z,35.4191
2023-05-04T15:15:00.229Z,35.4424
2023-05-04T15:16:01.357Z,35.4826
2023-05-04T15:17:02.452Z,35.3973
2023-05-04T15:18:03.626Z,35.2997
2023-05-04T15:19:04.745Z,35.3614
2023-05-04T15:20:06.006Z,35.3225
2023-05-04T15:21:06.877Z,35.3051
2023-05-04T15:22:07.994Z,35.3287
2023-05-04T15:23:09.083Z,35.2641
2023-05-04T15:24:10.212Z,35.2728
2023-05-04T15:25:11.320Z,35.2658
2023-05-04T15:26:12.418Z,35.2296
2023-05-04T15:27:13.529Z,35.2197
2023-05-04T15:28:14.622Z,35.2030
2023-05-04T15:29:15.733Z,35.3087
2023-05-04T15:30:16.833Z,35.2959
2023-05-04T15:31:17.968Z,35.1680
2023-05-04T15:32:19.081Z,35.1202
2023-05-04T15:33:20.175Z,35.1632
2023-05-04T15:34:21.258Z,35.2399
2023-05-04T15:35:22.384Z,35.3323
2023-05-04T15:36:23.467Z,35.3660
2023-05-04T15:37:24.590Z,35.3226
2023-05-04T15:38:25.708Z,35.2606
2023-05-04T15:39:26.818Z,35.2226
2023-05-04T15:40:27.924Z,35.2653
2023-05-04T15:41:29.036Z,35.3087
2023-05-04T15:42:30.130Z,35.3980
2023-05-04T15:43:31.287Z,35.4039
2023-05-04T15:44:32.345Z,35.5524
2023-05-04T15:45:33.445Z,35.5871
2023-05-04T15:46:34.600Z,35.4588
2023-05-04T15:47:35.682Z,35.3672
2023-05-04T15:48:36.767Z,35.4079
2023-05-04T15:49:37.854Z,35.3459
2023-05-04T15:50:38.984Z,35.2641
2023-05-04T15:51:40.081Z,35.2054
2023-05-04T15:52:41.175Z,35.2376
2023-05-04T15:53:42.321Z,35.2864
2023-05-04T15:54:43.371Z,35.2538
2023-05-04T15:55:44.482Z,35.2423
2023-05-04T15:56:45.594Z,35.2424
2023-05-04T15:57:46.709Z,35.2909
2023-05-04T15:58:47.833Z,35.3209
2023-05-04T15:59:48.896Z,35.4918
2023-05-04T16:00:50.049Z,35.5973
2023-05-04T16:01:51.123Z,35.6269
2023-05-04T16:02:52.341Z,35.7846
2023-05-04T16:03:53.461Z,35.7969
2023-05-04T16:04:54.416Z,35.8780
2023-05-04T16:05:55.529Z,35.8762
2023-05-04T16:06:57.590Z,35.9463
2023-05-04T16:07:57.754Z,36.1609
2023-05-04T16:08:58.865Z,36.0413
2023-05-04T16:09:59.944Z,35.9153
2023-05-04T16:11:01.216Z,35.9332
2023-05-04T16:12:02.159Z,36.0487
2023-05-04T16:13:03.289Z,36.0901
2023-05-04T16:14:04.394Z,36.0512
2023-05-04T16:15:05.481Z,36.0511
2023-05-04T16:16:06.621Z,36.1735
2023-05-04T16:17:07.739Z,36.1377
2023-05-04T16:18:08.874Z,36.0705
2023-05-04T16:19:11.587Z,35.9857
2023-05-04T16:20:11.004Z,35.9495
2023-05-04T16:21:12.109Z,36.0018
2023-05-04T16:22:13.201Z,35.9374
2023-05-04T16:23:14.330Z,35.9314
2023-05-04T16:24:15.417Z,35.9377
2023-05-04T16:25:16.539Z,35.9704
2023-05-04T16:26:17.637Z,36.0298
2023-05-04T16:27:18.756Z,36.0531
2023-05-04T16:28:19.849Z,36.1261
2023-05-04T16:29:20.942Z,36.2058
2023-05-04T16:30:22.065Z,36.2401
2023-05-04T16:31:23.169Z,36.2251
2023-05-04T16:32:24.292Z,36.1974
2023-05-04T16:33:25.375Z,36.0691
2023-05-04T16:34:26.493Z,35.8927
2023-05-04T16:35:27.579Z,35.7889
2023-05-04T16:36:28.685Z,35.7986
2023-05-04T16:37:29.797Z,35.9842
2023-05-04T16:38:30.889Z,35.9151
2023-05-04T16:39:32.003Z,35.9050
2023-05-04T16:40:33.085Z,35.7997
2023-05-04T16:41:34.251Z,35.6329
2023-05-04T16:42:35.284Z,35.6454
2023-05-04T16:43:36.401Z,35.6355
2023-05-04T16:44:37.546Z,35.4701
2023-05-04T16:45:38.599Z,35.3504
2023-05-04T16:46:39.691Z,35.2315
2023-05-04T16:47:40.849Z,35.1428
2023-05-04T16:48:41.916Z,35.1904
2023-05-04T16:49:43.023Z,35.2121
2023-05-04T16:50:44.127Z,35.2634
2023-05-04T16:51:45.245Z,35.2350
2023-05-04T16:52:46.362Z,35.2641
2023-05-04T16:53:47.427Z,35.2252
2023-05-04T16:54:48.545Z,35.1420
2023-05-04T16:55:49.653Z,35.1749
2023-05-04T16:56:50.746Z,35.0408
2023-05-04T16:57:51.849Z,35.0215
2023-05-04T16:58:52.926Z,35.1100
2023-05-04T16:59:54.123Z,35.1369
2023-05-04T17:00:55.117Z,35.1163
2023-05-04T17:01:56.262Z,35.1309
2023-05-04T17:02:57.377Z,35.1226
2023-05-04T17:03:58.488Z,35.0619
2023-05-04T17:04:59.530Z,35.0722
2023-05-04T17:06:00.638Z,35.0236
2023-05-04T17:07:01.715Z,35.0827
2023-05-04T17:08:02.825Z,35.0917
2023-05-04T17:09:03.911Z,35.1466
2023-05-04T17:10:05.206Z,35.2031
2023-05-04T17:11:06.137Z,35.2109
2023-05-04T17:12:07.363Z,35.1674
2023-05-04T17:13:08.365Z,35.1089
2023-05-04T17:14:09.408Z,35.0912
2023-05-04T17:15:10.521Z,35.1562
2023-05-04T17:16:11.614Z,35.1955
2023-05-04T17:17:12.714Z,35.2269
2023-05-04T17:18:13.806Z,35.1654
2023-05-04T17:19:14.897Z,35.1930
2023-05-04T17:20:15.997Z,35.2244
2023-05-04T17:21:17.082Z,35.1565
2023-05-04T17:22:18.257Z,35.0649
2023-05-04T17:23:19.294Z,35.0224
2023-05-04T17:24:20.358Z,35.0254
2023-05-04T17:25:21.514Z,35.0562
2023-05-04T17:26:22.560Z,35.0758
2023-05-04T17:27:23.650Z,35.1349
2023-05-04T17:28:24.743Z,35.2742
2023-05-04T17:29:25.861Z,35.3430
2023-05-04T17:30:26.955Z,35.3463
2023-05-04T17:31:28.086Z,35.4041
2023-05-04T17:32:29.142Z,35.3524
2023-05-04T17:33:30.238Z,35.2577
2023-05-04T17:34:31.320Z,35.2476
2023-05-04T17:35:32.443Z,35.2777
2023-05-04T17:36:33.516Z,35.2814
2023-05-04T17:37:34.613Z,35.2786
2023-05-04T17:38:35.719Z,35.2777
2023-05-04T17:39:36.831Z,35.3037
2023-05-04T17:40:37.919Z,35.3642
2023-05-04T17:41:39.020Z,35.3349
2023-05-04T17:42:40.097Z,35.2938
2023-05-04T17:43:41.191Z,35.3010
2023-05-04T17:44:42.278Z,35.2442
2023-05-04T17:45:43.430Z,35.2303
2023-05-04T17:46:44.471Z,35.3112
2023-05-04T17:47:45.597Z,35.2402
2023-05-04T17:48:46.658Z,35.2074
2023-05-04T17:49:47.745Z,35.1492
2023-05-04T17:50:48.921Z,35.1732
2023-05-04T17:51:49.964Z,35.2916
2023-05-04T17:52:51.037Z,35.3904
2023-05-04T17:53:52.130Z,35.3464
2023-05-04T17:54:53.226Z,35.3423
2023-05-04T17:55:54.359Z,35.3518
2023-05-04T17:56:55.415Z,35.3499
2023-05-04T17:57:56.495Z,35.3313
2023-05-04T17:58:57.731Z,35.3572
2023-05-04T17:59:58.701Z,35.4275
2023-05-04T18:00:59.785Z,35.3811
2023-05-04T18:02:00.899Z,35.3127
2023-05-04T18:03:02.131Z,35.2883
2023-05-04T18:04:03.082Z,35.2879
2023-05-04T18:05:04.182Z,35.3288
2023-05-04T18:06:05.293Z,35.4063
2023-05-04T18:07:06.357Z,35.6154
2023-05-04T18:08:07.525Z,35.6317
2023-05-04T18:09:08.636Z,35.6268
2023-05-04T18:10:09.805Z,35.6500
2023-05-04T18:11:10.825Z,35.6869
2023-05-04T18:12:11.913Z,35.7829
2023-05-04T18:13:13.026Z,35.9015
2023-05-04T18:14:14.086Z,35.9871
2023-05-04T18:15:15.185Z,36.1720
2023-05-04T18:16:16.296Z,36.2169
2023-05-04T18:17:17.391Z,36.1903
2023-05-04T18:18:18.483Z,36.2223
2023-05-04T18:19:19.570Z,36.2331
2023-05-04T18:20:20.681Z,36.2589
2023-05-04T18:21:21.764Z,36.2197
2023-05-04T18:22:22.868Z,36.2255
2023-05-04T18:23:23.961Z,36.2306
2023-05-04T18:24:25.062Z,36.3474
2023-05-04T18:25:26.148Z,36.3777
2023-05-04T18:26:27.269Z,36.4583
2023-05-04T18:27:28.348Z,36.4804
2023-05-04T18:28:29.443Z,36.5454
2023-05-04T18:29:30.533Z,36.6232
2023-05-04T18:30:31.642Z,36.7050
2023-05-04T18:31:32.761Z,36.5988
2023-05-04T18:32:33.835Z,36.5987
2023-05-04T18:33:34.922Z,36.6848
2023-05-04T18:34:36.031Z,36.7726
2023-05-04T18:35:37.096Z,36.8400
2023-05-04T18:36:38.200Z,36.8869
2023-05-04T18:37:39.280Z,36.9554
2023-05-04T18:38:40.389Z,36.9589
2023-05-04T18:39:41.478Z,37.0533
2023-05-04T18:40:42.608Z,37.1222
2023-05-04T18:41:43.694Z,37.2779
2023-05-04T18:42:44.774Z,37.3940
2023-05-04T18:43:45.901Z,37.4638
2023-05-04T18:44:46.981Z,37.5425
2023-05-04T18:45:48.127Z,37.5867
2023-05-04T18:46:49.217Z,37.6973
2023-05-04T18:47:50.336Z,37.8344
2023-05-04T18:48:51.378Z,37.8906
2023-05-04T18:49:52.495Z,37.8460
2023-05-04T18:50:53.577Z,37.9265
2023-05-04T18:51:54.689Z,37.9756
2023-05-04T18:52:55.765Z,37.9938
2023-05-04T18:53:56.853Z,38.0173
2023-05-04T18:54:57.943Z,38.1173
2023-05-04T18:55:59.057Z,38.2538
2023-05-04T18:57:00.193Z,38.3842
2023-05-04T18:58:01.238Z,38.3402
2023-05-04T18:59:02.341Z,38.3271
2023-05-04T19:00:03.445Z,38.4040
2023-05-04T19:01:04.585Z,38.5389
2023-05-04T19:02:05.642Z,38.6873
2023-05-04T19:03:06.834Z,38.7120
2023-05-04T19:04:08.083Z,38.6417
2023-05-04T19:05:08.931Z,38.7280
2023-05-04T19:06:10.015Z,38.7503
2023-05-04T19:07:11.136Z,38.7867
2023-05-04T19:08:12.227Z,38.8159
2023-05-04T19:09:13.340Z,38.7726
2023-05-04T19:10:14.401Z,38.7288
2023-05-04T19:11:15.504Z,38.7282
2023-05-04T19:12:16.623Z,38.8741
2023-05-04T19:13:17.799Z,39.0040
2023-05-04T19:14:18.792Z,38.9170
2023-05-04T19:15:19.901Z,38.8760
2023-05-04T19:16:21.016Z,38.8878
2023-05-04T19:17:22.088Z,39.0046
2023-05-04T19:18:23.180Z,39.0830
2023-05-04T19:19:24.288Z,39.1001
2023-05-04T19:20:25.369Z,39.0672
2023-05-04T19:21:26.465Z,39.0760
2023-05-04T19:22:27.557Z,38.9620
2023-05-04T19:23:28.644Z,39.0024
2023-05-04T19:24:29.748Z,39.0709
2023-05-04T19:25:34.823Z,39.1048
2023-05-04T19:26:31.957Z,39.1006
2023-05-04T19:27:33.055Z,39.0761
2023-05-04T19:28:34.150Z,39.0863
2023-05-04T19:29:35.230Z,39.1757
2023-05-04T19:30:36.335Z,39.1174
2023-05-04T19:31:37.454Z,39.1377
2023-05-04T19:32:38.536Z,39.1445
2023-05-04T19:33:47.914Z,39.2388
2023-05-04T19:34:41.693Z,39.3571
2023-05-04T19:35:41.792Z,39.4044
2023-05-04T19:36:42.881Z,39.4930
2023-05-04T19:37:43.994Z,39.6473
2023-05-04T19:38:45.089Z,39.7645
2023-05-04T19:39:46.173Z,39.7219
2023-05-04T19:40:47.268Z,39.6381
2023-05-04T19:41:48.390Z,39.6063
2023-05-04T19:42:49.480Z,39.6534
2023-05-04T19:43:50.639Z,39.7145
2023-05-04T19:44:51.669Z,39.6766
2023-05-04T19:45:52.772Z,39.6710
2023-05-04T19:46:53.903Z,39.7536
2023-05-04T19:47:55.004Z,39.6711
2023-05-04T19:48:56.062Z,39.5832
2023-05-04T19:49:57.154Z,39.5358
2023-05-04T19:50:58.248Z,39.5494
2023-05-04T19:51:59.343Z,39.6063
2023-05-04T19:53:00.470Z,39.6125
2023-05-04T19:54:01.516Z,39.7263
2023-05-04T19:55:02.620Z,39.7550
2023-05-04T19:56:03.731Z,39.7753
2023-05-04T19:57:04.822Z,39.7317
2023-05-04T19:58:05.945Z,39.8596
2023-05-04T19:59:07.012Z,39.8406
2023-05-04T20:00:08.307Z,39.8236
2023-05-04T20:01:09.260Z,39.7926
2023-05-04T20:02:10.317Z,39.8717
2023-05-04T20:03:11.442Z,40.0119
2023-05-04T20:04:12.501Z,40.1445
2023-05-04T20:05:13.622Z,40.2114
2023-05-04T20:06:14.701Z,40.1765
2023-05-04T20:07:15.795Z,40.1313
2023-05-04T20:08:16.901Z,40.1813
2023-05-04T20:09:17.962Z,40.1607
2023-05-04T20:10:19.066Z,40.2721
2023-05-04T20:11:20.157Z,40.3711
2023-05-04T20:12:21.258Z,40.3127
2023-05-04T20:13:22.363Z,40.3002
2023-05-04T20:14:23.464Z,40.2682
2023-05-04T20:15:24.538Z,40.3736
2023-05-04T20:16:25.737Z,40.4569
2023-05-04T20:17:26.811Z,40.5604
2023-05-04T20:18:27.902Z,40.6183
2023-05-04T20:19:28.955Z,40.5933
2023-05-04T20:20:30.052Z,40.5189
2023-05-04T20:21:31.141Z,40.4311
2023-05-04T20:22:32.224Z,40.4243
2023-05-04T20:23:33.348Z,40.4449
2023-05-04T20:24:34.426Z,40.5016
2023-05-04T20:25:35.522Z,40.5796
2023-05-04T20:26:36.612Z,40.8074
2023-05-04T20:27:37.710Z,41.0115
2023-05-04T20:28:38.812Z,41.3543
2023-05-04T20:29:39.910Z,41.4067
2023-05-04T20:30:41.001Z,41.4735
2023-05-04T20:31:42.132Z,41.3038
2023-05-04T20:32:43.225Z,41.2893
2023-05-04T20:33:44.295Z,41.1568
2023-05-04T20:34:45.401Z,41.1947
2023-05-04T20:35:46.499Z,41.2437
2023-05-04T20:36:47.614Z,41.2850
2023-05-04T20:37:48.689Z,41.3775
2023-05-04T20:38:49.796Z,41.3504
2023-05-04T20:39:50.887Z,41.3422
2023-05-04T20:40:52.692Z,41.3559
2023-05-04T20:41:53.078Z,41.3014
2023-05-04T20:42:54.149Z,41.3491
2023-05-04T20:43:55.271Z,41.3355
2023-05-04T20:44:56.372Z,41.3625
2023-05-04T20:45:57.468Z,41.4590
2023-05-04T20:46:58.554Z,41.4963
2023-05-04T20:47:59.704Z,41.5591
2023-05-04T20:49:00.770Z,41.5960
2023-05-04T20:50:01.853Z,41.5807
2023-05-04T20:51:14.085Z,41.7132
2023-05-04T20:52:05.048Z,41.8034
2023-05-04T20:53:05.143Z,41.8633
2023-05-04T20:54:06.239Z,41.8628
2023-05-04T20:55:07.366Z,41.8658
2023-05-04T20:56:08.417Z,41.9748
2023-05-04T20:57:09.562Z,42.0079
2023-05-04T20:58:10.624Z,42.0560
2023-05-04T20:59:11.722Z,42.1106
2023-05-04T21:00:12.822Z,42.1477
2023-05-04T21:01:13.929Z,42.2332
2023-05-04T21:02:15.025Z,42.2082
2023-05-04T21:03:16.172Z,42.2450
2023-05-04T21:04:17.222Z,42.3098
2023-05-04T21:05:18.302Z,42.3772
2023-05-04T21:06:19.443Z,42.5795
2023-05-04T21:07:20.517Z,42.6670
2023-05-04T21:08:21.614Z,42.6450
2023-05-04T21:09:22.701Z,42.6041
2023-05-04T21:10:23.813Z,42.6691
2023-05-04T21:11:24.902Z,42.7106
2023-05-04T21:12:25.983Z,42.6849
2023-05-04T21:13:27.106Z,42.5981
2023-05-04T21:14:28.205Z,42.6450
2023-05-04T21:15:29.302Z,42.6849
2023-05-04T21:16:30.481Z,42.5942
2023-05-04T21:17:31.508Z,42.6385
2023-05-04T21:18:32.589Z,42.7074
2023-05-04T21:19:33.681Z,42.6923
2023-05-04T21:20:34.789Z,42.7165
2023-05-04T21:21:35.868Z,42.6989
2023-05-04T21:22:37.004Z,42.8570
2023-05-04T21:23:38.070Z,43.1092
2023-05-04T21:24:39.179Z,43.4995
2023-05-04T21:25:40.250Z,43.5160
2023-05-04T21:26:41.343Z,43.4079
2023-05-04T21:27:44.319Z,43.5233
2023-05-04T21:28:43.532Z,43.4584
2023-05-04T21:29:44.638Z,43.4294
2023-05-04T21:30:45.730Z,43.5155
2023-05-04T21:31:46.934Z,43.6782
2023-05-04T21:32:48.001Z,43.7148
2023-05-04T21:33:49.036Z,43.6372
2023-05-04T21:34:50.178Z,43.4809
2023-05-04T21:35:51.231Z,43.4580
2023-05-04T21:36:52.336Z,43.5214
2023-05-04T21:37:53.432Z,43.7221
2023-05-04T21:38:54.536Z,43.8498
2023-05-04T21:39:55.638Z,43.7197
2023-05-04T21:40:56.728Z,43.8216
2023-05-04T21:41:57.823Z,43.7538
2023-05-04T21:42:58.929Z,43.6695
2023-05-04T21:44:00.236Z,43.5367
2023-05-04T21:45:01.157Z,43.3627
2023-05-04T21:46:02.247Z,43.3769
2023-05-04T21:47:03.333Z,43.5070
2023-05-04T21:48:04.420Z,43.5779
2023-05-04T21:49:05.494Z,43.6124
2023-05-04T21:50:06.841Z,43.7974
2023-05-04T21:51:07.723Z,43.9400
2023-05-04T21:52:08.823Z,43.8454
2023-05-04T21:53:09.933Z,43.7754
2023-05-04T21:54:11.020Z,43.8532
2023-05-04T21:55:12.135Z,43.8360
2023-05-04T21:56:13.205Z,43.7818
2023-05-04T21:57:14.310Z,43.8725
2023-05-04T21:58:15.400Z,43.8997
2023-05-04T21:59:16.503Z,43.6095
2023-05-04T22:00:17.656Z,43.5743
2023-05-04T22:01:18.763Z,43.5398
2023-05-04T22:02:19.799Z,43.5886
2023-05-04T22:03:20.892Z,43.7129
2023-05-04T22:04:22.061Z,43.7032
2023-05-04T22:05:23.108Z,43.4379
2023-05-04T22:06:24.187Z,43.2765
2023-05-04T22:07:25.295Z,43.1792
2023-05-04T22:08:26.462Z,43.3647
2023-05-04T22:09:27.556Z,43.4854
2023-05-04T22:10:28.655Z,43.5894
2023-05-04T22:11:29.761Z,43.7291
2023-05-04T22:12:30.868Z,43.7745
2023-05-04T22:13:31.936Z,43.8979
2023-05-04T22:14:33.036Z,43.9674
2023-05-04T22:15:46.200Z,43.9998
2023-05-04T22:16:36.243Z,44.1355
2023-05-04T22:17:36.392Z,44.2769
2023-05-04T22:18:37.433Z,44.4564
2023-05-04T22:19:38.529Z,44.5105
2023-05-04T22:20:39.643Z,44.5838
2023-05-04T22:21:40.714Z,44.5757